Time;durP1;ratioP1;P1;durP2;ratioP2;P2;SDS_P1;SDS_P2;PMS_P1;PMS_P2;Temp;Humidity;BMP_temperature;BMP_pressure;BME280_temperature;BME280_humidity;BME280_pressure;Samples;Min_cycle;Max_cycle;Signal;HPM_P1;HPM_P2
2023/07/29 00:01:35;;;;;;;9.48;6.40;;;;;;;;;;5093308;28;20027;-83
2023/07/29 00:04:04;;;;;;;7.55;5.57;;;;;;;;;;5093138;28;20519;-84
2023/07/29 00:06:30;;;;;;;7.75;5.72;;;;;;;;;;5092745;28;20024;-83
2023/07/29 00:08:57;;;;;;;8.45;6.22;;;;;;;;;;5094371;28;20031;-86
2023/07/29 00:11:24;;;;;;;7.78;5.57;;;;;;;;;;5091786;28;20243;-84
2023/07/29 00:13:54;;;;;;;10.48;5.88;;;;;;;;;;5110941;28;20028;-89
2023/07/29 00:16:23;;;;;;;9.93;6.00;;;;;;;;;;5094245;28;20016;-82
2023/07/29 00:18:49;;;;;;;8.60;6.00;;;;;;;;;;5110574;28;20467;-82
2023/07/29 00:21:15;;;;;;;8.00;5.78;;;;;;;;;;5094335;28;20028;-83
2023/07/29 00:23:41;;;;;;;7.88;5.75;;;;;;;;;;5109676;28;20024;-83
2023/07/29 00:26:07;;;;;;;9.88;6.00;;;;;;;;;;5110204;28;20101;-83
2023/07/29 00:28:33;;;;;;;7.68;5.93;;;;;;;;;;5109980;28;20024;-83
2023/07/29 00:31:00;;;;;;;7.32;6.15;;;;;;;;;;5109987;28;20069;-83
2023/07/29 00:33:26;;;;;;;8.75;5.82;;;;;;;;;;5109755;28;20088;-83
2023/07/29 00:35:52;;;;;;;8.35;6.40;;;;;;;;;;5094474;28;20429;-83
2023/07/29 00:38:18;;;;;;;7.38;5.63;;;;;;;;;;5093867;28;20017;-82
2023/07/29 00:40:44;;;;;;;8.40;5.57;;;;;;;;;;5110012;28;20032;-83
2023/07/29 00:43:10;;;;;;;9.80;6.85;;;;;;;;;;5110345;28;20024;-83
2023/07/29 00:45:36;;;;;;;11.20;5.82;;;;;;;;;;5093268;28;20032;-84
2023/07/29 00:48:04;;;;;;;7.43;5.80;;;;;;;;;;5110070;28;20048;-84
2023/07/29 00:50:30;;;;;;;7.80;5.70;;;;;;;;;;5110030;28;20024;-84
2023/07/29 00:52:57;;;;;;;9.10;6.10;;;;;;;;;;5109680;28;20028;-84
2023/07/29 00:55:23;;;;;;;9.63;7.32;;;;;;;;;;5110133;28;20141;-84
2023/07/29 00:57:51;;;;;;;9.60;7.95;;;;;;;;;;5100287;28;20115;-83
2023/07/29 01:00:17;;;;;;;11.73;7.78;;;;;;;;;;5076471;28;20479;-84
2023/07/29 01:02:44;;;;;;;8.40;7.38;;;;;;;;;;5076565;28;20487;-84
2023/07/29 01:05:12;;;;;;;10.32;8.02;;;;;;;;;;5076139;28;20116;-83
2023/07/29 01:08:00;;;;;;;9.02;7.20;;;512.80;2380.80;;;;;;5076267;28;20020;-82
2023/07/29 01:10:44;;;;;;;7.82;6.15;;;512.80;2380.80;;;;;;5075911;28;20048;-83
2023/07/29 01:13:13;;;;;;;13.63;7.60;;;512.70;2380.80;;;;;;5076072;28;20036;-82
2023/07/29 01:15:56;;;;;;;11.77;7.50;;;512.70;2380.80;;;;;;5077348;28;20167;-85
2023/07/29 01:18:26;;;;;;;9.85;7.75;;;512.60;2380.80;;;;;;5076663;28;20539;-84
2023/07/29 01:20:57;;;;;;;10.70;7.50;;;512.70;2380.80;;;;;;5076178;28;20035;-83
2023/07/29 01:23:41;;;;;;;11.60;7.78;;;512.70;2380.80;;;;;;5076465;28;20435;-83
2023/07/29 01:26:06;;;;;;;13.55;8.55;;;512.80;2380.80;;;;;;5076190;28;20026;-84
2023/07/29 01:28:32;;;;;;;11.45;8.35;;;512.70;2380.80;;;;;;5076218;28;20064;-84
2023/07/29 01:31:11;;;;;;;9.90;7.88;;;;;;;;;;5076297;28;20021;-83
2023/07/29 01:33:45;;;;;;;10.93;8.05;;;512.40;2380.80;;;;;;5075974;28;20025;-84
2023/07/29 01:36:22;;;;;;;12.88;7.22;;;512.30;2380.80;;;;;;5082535;28;20016;-85
2023/07/29 01:38:49;;;;;;;8.93;7.63;;;512.40;2380.80;;;;;;5097653;28;20036;-82
2023/07/29 01:41:17;;;;;;;8.82;7.40;;;512.50;2380.80;;;;;;5075916;28;20024;-82
2023/07/29 01:43:43;;;;;;;11.73;6.82;;;512.50;2380.80;;;;;;5076084;28;20138;-83
2023/07/29 01:46:16;;;;;;;9.65;7.00;;;512.60;2380.80;;;;;;5075782;28;20021;-84
2023/07/29 01:48:42;;;;;;;7.95;6.80;;;512.70;2380.80;;;;;;5075956;28;20464;-83
2023/07/29 01:51:09;;;;;;;10.50;8.07;;;512.80;2380.80;;;;;;5075802;28;20032;-83
2023/07/29 01:53:35;;;;;;;9.40;8.00;;;512.70;2380.80;;;;;;5075536;28;20499;-83
2023/07/29 01:56:02;;;;;;;10.45;7.32;;;512.70;2380.80;;;;;;5075605;28;20033;-84
2023/07/29 01:58:28;;;;;;;10.43;7.38;;;512.80;2380.80;;;;;;5075742;28;20464;-84
2023/07/29 02:00:53;;;;;;;8.77;6.85;;;512.70;2380.80;;;;;;5075389;28;20068;-83
2023/07/29 02:03:19;;;;;;;10.90;7.38;;;512.70;2380.80;;;;;;5076597;28;20040;-84
2023/07/29 02:05:45;;;;;;;9.55;7.05;;;512.60;2380.80;;;;;;5075670;28;20024;-83
2023/07/29 02:08:11;;;;;;;9.48;6.75;;;512.50;2380.80;;;;;;5075906;28;20024;-83
2023/07/29 02:10:37;;;;;;;12.57;7.40;;;512.60;2380.80;;;;;;5076455;28;20046;-83
2023/07/29 02:13:03;;;;;;;10.85;8.00;;;512.50;2380.80;;;;;;5076630;28;20392;-84
2023/07/29 02:15:29;;;;;;;13.63;6.97;;;512.90;2380.80;;;;;;5076364;28;20112;-83
2023/07/29 02:17:55;;;;;;;9.23;7.35;;;512.50;2380.80;;;;;;5075269;28;20444;-83
2023/07/29 02:20:21;;;;;;;8.52;7.38;;;512.40;2380.80;;;;;;5076833;28;20025;-84
2023/07/29 02:22:48;;;;;;;9.82;7.47;;;512.10;2380.80;;;;;;5075973;28;20533;-83
2023/07/29 02:25:14;;;;;;;15.63;7.75;;;512.30;2380.80;;;;;;5087280;28;20028;-82
2023/07/29 02:27:40;;;;;;;12.13;7.60;;;512.20;2380.80;;;;;;5091084;28;20032;-83
2023/07/29 02:30:06;;;;;;;8.82;7.03;;;512.10;2380.80;;;;;;5090582;28;20028;-82
2023/07/29 02:32:32;;;;;;;9.50;7.82;;;487.20;2380.80;;;;;;5091238;28;20025;-82
2023/07/29 02:34:58;;;;;;;8.95;6.93;;;487.10;2380.80;;;;;;5094597;28;20032;-81
2023/07/29 02:37:24;;;;;;;10.00;7.57;;;487.10;2380.80;;;;;;5095817;28;20025;-82
2023/07/29 02:39:49;;;;;;;10.40;7.25;;;487.10;2380.80;;;;;;5090806;28;20032;-83
2023/07/29 02:42:15;;;;;;;12.00;7.60;;;487.10;2380.80;;;;;;5075934;28;20032;-84
2023/07/29 02:44:41;;;;;;;10.63;7.50;;;486.80;2380.80;;;;;;5074073;28;20039;-84
2023/07/29 02:47:07;;;;;;;10.02;7.05;;;487.10;2380.80;;;;;;5075704;28;20155;-84
2023/07/29 02:49:33;;;;;;;10.85;7.15;;;487.10;2380.80;;;;;;5074335;28;20115;-84
2023/07/29 02:51:58;;;;;;;10.80;7.78;;;487.10;2380.80;;;;;;5075649;28;20025;-84
2023/07/29 02:54:24;;;;;;;12.85;7.80;;;487.20;2380.80;;;;;;5074529;28;20040;-84
2023/07/29 02:56:50;;;;;;;8.75;6.65;;;487.10;2380.80;;;;;;5074517;28;20032;-83
2023/07/29 02:59:16;;;;;;;10.02;7.00;;;487.00;2380.80;;;;;;5075229;28;20020;-85
2023/07/29 03:01:42;;;;;;;11.57;7.30;;;487.10;2380.80;;;;;;5074264;28;20035;-84
2023/07/29 03:04:08;;;;;;;11.05;7.35;;;486.90;2380.80;;;;;;5074185;28;20036;-84
2023/07/29 03:06:34;;;;;;;9.77;7.72;;;486.90;2380.80;;;;;;5073971;28;20029;-84
2023/07/29 03:09:00;;;;;;;9.65;6.75;;;486.90;2380.80;;;;;;5074099;28;20024;-84
2023/07/29 03:11:25;;;;;;;11.60;7.40;;;486.80;2380.80;;;;;;5073367;28;20491;-85
2023/07/29 03:13:51;;;;;;;9.32;7.50;;;487.00;2380.80;;;;;;5073931;28;20116;-84
2023/07/29 03:16:18;;;;;;;9.38;6.88;;;486.90;2380.80;;;;;;5073818;28;20075;-84
2023/07/29 03:18:44;;;;;;;11.13;6.63;;;487.00;2380.80;;;;;;5073801;28;20060;-85
2023/07/29 03:21:10;;;;;;;11.88;7.28;;;487.10;2380.80;;;;;;5074539;28;20047;-84
2023/07/29 03:23:37;;;;;;;8.63;7.13;;;487.20;2380.80;;;;;;5073646;28;20032;-84
2023/07/29 03:26:09;;;;;;;8.48;7.10;;;487.20;2380.80;;;;;;5074699;28;20201;-85
2023/07/29 03:28:37;;;;;;;8.27;7.00;;;487.20;2380.80;;;;;;5073596;28;20025;-84
2023/07/29 03:31:03;;;;;;;8.77;7.10;;;487.20;2380.80;;;;;;5073564;28;20059;-84
2023/07/29 03:33:29;;;;;;;8.98;7.68;;;487.10;2380.80;;;;;;5073502;28;20477;-84
2023/07/29 03:35:55;;;;;;;15.85;7.50;;;487.10;2380.80;;;;;;5073525;28;20029;-84
2023/07/29 03:38:21;;;;;;;11.02;7.50;;;487.10;2380.80;;;;;;5074710;28;20522;-84
2023/07/29 03:40:47;;;;;;;11.43;6.43;;;487.20;2380.80;;;;;;5073466;28;20024;-84
2023/07/29 03:43:13;;;;;;;9.43;7.07;;;487.30;2380.80;;;;;;5073577;28;20025;-84
2023/07/29 03:45:40;;;;;;;10.40;6.68;;;487.10;2380.80;;;;;;5073583;28;20032;-84
2023/07/29 03:48:06;;;;;;;9.70;7.05;;;487.10;2380.80;;;;;;5073232;28;20029;-84
2023/07/29 03:50:35;;;;;;;12.98;7.25;;;487.10;2380.80;;;;;;5073535;28;20067;-84
2023/07/29 03:53:01;;;;;;;11.18;7.10;;;487.10;2380.80;;;;;;5073204;28;20021;-84
2023/07/29 03:55:29;;;;;;;8.43;6.85;;;487.30;2380.80;;;;;;5073478;28;20035;-84
2023/07/29 03:57:59;;;;;;;9.55;6.57;;;487.30;2380.80;;;;;;5073094;28;20051;-85
2023/07/29 04:00:25;;;;;;;9.35;6.97;;;512.00;2380.80;;;;;;5074225;28;20027;-85
2023/07/29 04:02:51;;;;;;;10.02;6.28;;;512.00;2380.80;;;;;;5074472;28;20457;-84
2023/07/29 04:05:17;;;;;;;9.23;6.53;;;512.00;2380.80;;;;;;5073300;28;20032;-85
2023/07/29 04:07:43;;;;;;;11.20;7.07;;;512.00;2380.80;;;;;;5073033;28;20031;-84
2023/07/29 04:10:10;;;;;;;14.15;7.70;;;512.00;2380.80;;;;;;5074133;28;20045;-85
2023/07/29 04:12:35;;;;;;;11.73;7.18;;;512.10;2380.80;;;;;;5072987;28;20078;-85
2023/07/29 04:15:02;;;;;;;10.57;7.13;;;487.30;2380.80;;;;;;5072892;28;20032;-84
2023/07/29 04:17:28;;;;;;;9.57;6.82;;;487.10;2380.80;;;;;;5073220;28;20032;-85
2023/07/29 04:19:53;;;;;;;15.88;6.75;;;487.10;2380.80;;;;;;5073266;28;20533;-84
2023/07/29 04:22:19;;;;;;;10.85;7.00;;;487.00;2380.80;;;;;;5074109;28;20067;-84
2023/07/29 04:24:46;;;;;;;11.98;6.95;;;487.20;2380.80;;;;;;5073087;28;20033;-85
2023/07/29 04:27:12;;;;;;;10.38;7.05;;;487.30;2380.80;;;;;;5074569;28;20109;-84
2023/07/29 04:29:38;;;;;;;14.75;7.50;;;487.30;2380.80;;;;;;5072742;28;20060;-84
2023/07/29 04:32:04;;;;;;;11.15;7.10;;;512.20;2380.80;;;;;;5074383;28;20029;-84
2023/07/29 04:34:31;;;;;;;10.93;6.95;;;512.00;2380.80;;;;;;5078366;28;20035;-85
2023/07/29 04:36:56;;;;;;;12.50;7.20;;;512.10;2380.80;;;;;;5076973;28;20029;-85
2023/07/29 04:39:22;;;;;;;10.82;7.38;;;487.30;2380.80;;;;;;5077036;28;20483;-85
2023/07/29 04:41:48;;;;;;;10.65;7.53;;;487.20;2380.80;;;;;;5077092;28;20029;-84
2023/07/29 04:44:14;;;;;;;12.05;8.30;;;487.20;2380.80;;;;;;5080263;28;20039;-84
2023/07/29 04:46:39;;;;;;;11.57;7.43;;;487.10;2380.80;;;;;;5117262;28;20028;-83
2023/07/29 04:49:05;;;;;;;9.88;7.72;;;487.00;2380.80;;;;;;5138954;27;20043;-82
2023/07/29 04:51:34;;;;;;;10.63;7.00;;;487.10;2380.80;;;;;;5099533;28;20016;-84
2023/07/29 04:54:00;;;;;;;11.40;7.05;;;487.20;2380.80;;;;;;5098478;28;20027;-84
2023/07/29 04:56:26;;;;;;;11.55;7.82;;;487.30;2380.80;;;;;;5114035;28;20380;-84
2023/07/29 04:58:52;;;;;;;13.70;7.13;;;487.10;2380.80;;;;;;5114085;28;20032;-84
2023/07/29 05:01:18;;;;;;;12.10;7.70;;;487.10;2380.80;;;;;;5114418;28;20024;-84
2023/07/29 05:03:43;;;;;;;10.63;7.25;;;487.00;2380.80;;;;;;5114000;28;20085;-84
2023/07/29 05:06:09;;;;;;;9.00;6.95;;;487.10;2380.80;;;;;;5114847;28;20464;-84
2023/07/29 05:08:35;;;;;;;11.52;7.35;;;487.10;2380.80;;;;;;5114035;28;20468;-84
2023/07/29 05:11:01;;;;;;;13.27;7.03;;;512.00;2380.80;;;;;;5113091;28;20058;-85
2023/07/29 05:13:27;;;;;;;11.45;6.13;;;512.10;2380.80;;;;;;5113541;28;20032;-85
2023/07/29 05:15:53;;;;;;;11.95;7.55;;;512.40;2380.80;;;;;;5115258;28;20085;-84
2023/07/29 05:18:18;;;;;;;13.60;6.95;;;512.60;2380.80;;;;;;5116754;28;20024;-84
2023/07/29 05:20:44;;;;;;;11.25;6.90;;;512.60;2380.80;;;;;;5101491;28;20024;-85
2023/07/29 05:23:10;;;;;;;10.60;6.75;;;512.50;2380.80;;;;;;5117979;28;20032;-84
2023/07/29 05:25:36;;;;;;;9.68;6.80;;;512.50;2380.80;;;;;;5101634;28;20056;-84
2023/07/29 05:28:02;;;;;;;11.80;6.90;;;512.40;2380.80;;;;;;5117243;28;20020;-85
2023/07/29 05:30:30;;;;;;;11.80;6.80;;;512.40;2380.80;;;;;;5115525;28;20028;-84
2023/07/29 05:33:00;;;;;;;9.57;6.72;;;512.70;2380.80;;;;;;5113334;28;20443;-84
2023/07/29 05:35:26;;;;;;;9.18;7.18;;;512.70;2380.80;;;;;;5086959;28;20028;-84
2023/07/29 05:37:53;;;;;;;13.50;8.13;;;512.60;2380.80;;;;;;5075419;28;20075;-84
2023/07/29 05:40:19;;;;;;;10.40;7.13;;;512.70;2380.80;;;;;;5075977;28;20033;-84
2023/07/29 05:42:45;;;;;;;9.73;6.53;;;512.70;2380.80;;;;;;5075197;28;20024;-84
2023/07/29 05:45:11;;;;;;;10.32;7.05;;;512.80;2380.80;;;;;;5074931;28;20032;-85
2023/07/29 05:47:37;;;;;;;8.98;6.93;;;512.80;2380.80;;;;;;5074896;28;20051;-85
2023/07/29 05:50:04;;;;;;;10.73;6.72;;;512.90;2380.80;;;;;;5076943;28;20492;-84
2023/07/29 05:52:33;;;;;;;8.30;6.55;;;512.90;2380.80;;;;;;5076577;28;20032;-84
2023/07/29 05:54:59;;;;;;;8.52;6.15;;;537.60;2406.40;;;;;;5075490;28;20495;-84
2023/07/29 05:57:25;;;;;;;8.40;6.53;;;537.60;2406.40;;;;;;5075615;28;20028;-84
2023/07/29 05:59:51;;;;;;;9.27;7.53;;;537.60;2406.40;;;;;;5075265;28;20032;-85
2023/07/29 06:02:17;;;;;;;10.80;7.03;;;537.60;2406.40;;;;;;5075426;28;20028;-84
2023/07/29 06:04:42;;;;;;;8.82;6.80;;;537.80;2406.40;;;;;;5075442;28;20024;-84
2023/07/29 06:07:08;;;;;;;11.90;6.68;;;537.90;2406.40;;;;;;5075020;28;20475;-82
2023/07/29 06:09:34;;;;;;;9.77;6.68;;;538.00;2406.40;;;;;;5076295;28;20548;-82
2023/07/29 06:12:00;;;;;;;11.32;7.10;;;538.10;2406.40;;;;;;5076300;28;20051;-81
2023/07/29 06:14:26;;;;;;;16.60;7.60;;;538.20;2406.40;;;;;;5075007;28;20090;-82
2023/07/29 06:16:52;;;;;;;7.85;6.65;;;538.30;2406.40;;;;;;5076388;28;20119;-82
2023/07/29 06:19:19;;;;;;;9.98;6.88;;;538.40;2406.40;;;;;;5076743;28;20056;-85
2023/07/29 06:21:45;;;;;;;10.07;6.72;;;538.50;2406.40;;;;;;5075065;28;20522;-84
2023/07/29 06:24:11;;;;;;;10.18;6.68;;;563.30;2432.00;;;;;;5075438;28;20036;-85
2023/07/29 06:26:37;;;;;;;10.52;6.75;;;563.40;2432.00;;;;;;5075002;28;20025;-84
2023/07/29 06:29:02;;;;;;;9.43;6.78;;;563.50;2432.00;;;;;;5076366;28;20033;-86
2023/07/29 06:31:29;;;;;;;10.10;6.63;;;563.60;2432.00;;;;;;5074583;28;20396;-85
2023/07/29 06:33:55;;;;;;;9.63;5.82;;;563.70;2432.00;;;;;;5076229;28;20449;-84
2023/07/29 06:36:21;;;;;;;9.40;6.47;;;563.80;2432.00;;;;;;5074723;28;20081;-85
2023/07/29 06:38:46;;;;;;;8.70;6.30;;;563.90;2432.00;;;;;;5074650;28;20028;-85
2023/07/29 06:41:12;;;;;;;9.52;7.38;;;564.00;2432.00;;;;;;5075749;28;20028;-85
2023/07/29 06:43:38;;;;;;;10.73;6.28;;;564.00;2432.00;;;;;;5075672;28;20032;-85
2023/07/29 06:46:04;;;;;;;11.05;6.65;;;588.80;2432.00;;;;;;5075767;28;20039;-85
2023/07/29 06:48:29;;;;;;;11.18;7.53;;;589.00;2432.00;;;;;;5074210;28;20138;-83
2023/07/29 06:51:00;;;;;;;11.90;7.10;;;589.20;2432.00;;;;;;5074439;28;20025;-83
2023/07/29 06:53:26;;;;;;;10.32;7.20;;;589.20;2432.00;;;;;;5075488;28;20025;-84
2023/07/29 06:55:53;;;;;;;8.98;6.10;;;589.30;2432.00;;;;;;5075658;28;20032;-84
2023/07/29 06:58:19;;;;;;;10.00;6.15;;;589.40;2432.00;;;;;;5090793;28;20038;-84
2023/07/29 07:00:45;;;;;;;8.95;5.93;;;589.60;2432.00;;;;;;5094700;28;20380;-85
2023/07/29 07:03:11;;;;;;;8.50;6.38;;;589.60;2432.00;;;;;;5094644;28;20024;-85
2023/07/29 07:05:37;;;;;;;8.38;6.22;;;589.60;2432.00;;;;;;5094219;28;20024;-85
2023/07/29 07:08:03;;;;;;;11.35;6.15;;;589.70;2432.00;;;;;;5094370;28;20028;-85
2023/07/29 07:10:29;;;;;;;11.98;7.13;;;614.50;2432.00;;;;;;5094098;28;20051;-85
2023/07/29 07:12:54;;;;;;;9.93;5.80;;;614.80;2432.00;;;;;;5095444;28;20380;-85
2023/07/29 07:15:20;;;;;;;9.18;5.55;;;614.80;2432.00;;;;;;5094481;28;20055;-85
2023/07/29 07:17:46;;;;;;;9.77;6.38;;;614.80;2432.00;;;;;;5094046;28;20020;-84
2023/07/29 07:20:12;;;;;;;8.68;5.88;;;614.80;2432.00;;;;;;5094244;28;20105;-88
2023/07/29 07:22:37;;;;;;;8.23;5.70;;;615.10;2432.00;;;;;;5094392;28;20034;-86
2023/07/29 07:25:04;;;;;;;9.15;5.82;;;615.10;2432.00;;;;;;5094163;28;20032;-87
2023/07/29 07:27:30;;;;;;;11.15;6.38;;;615.30;2432.00;;;;;;5094254;28;20028;-87
2023/07/29 07:29:55;;;;;;;7.20;6.25;;;615.30;2432.00;;;;;;5095200;28;20496;-87
2023/07/29 07:32:21;;;;;;;8.68;5.45;;;640.10;2432.00;;;;;;5094163;28;20020;-86
2023/07/29 07:34:47;;;;;;;9.00;5.25;;;615.30;2432.00;;;;;;5093954;28;20024;-87
2023/07/29 07:37:12;;;;;;;11.13;5.90;;;640.10;2432.00;;;;;;5093949;28;20039;-87
2023/07/29 07:39:38;;;;;;;11.13;5.93;;;640.40;2432.00;;;;;;5095382;28;20371;-87
2023/07/29 07:42:04;;;;;;;7.60;5.88;;;640.60;2432.00;;;;;;5093836;28;20031;-86
2023/07/29 07:44:30;;;;;;;9.20;6.45;;;640.90;2432.00;;;;;;5093951;28;20032;-87
2023/07/29 07:46:56;;;;;;;9.27;5.07;;;665.70;2432.00;;;;;;5094999;28;20101;-84
2023/07/29 07:49:22;;;;;;;8.90;5.82;;;665.90;2432.00;;;;;;5094466;28;20421;-84
2023/07/29 07:51:48;;;;;;;9.02;5.55;;;665.90;2432.00;;;;;;5095090;28;20051;-84
2023/07/29 07:54:14;;;;;;;9.43;5.55;;;665.60;2432.00;;;;;;5094851;28;20502;-84
2023/07/29 07:56:40;;;;;;;9.60;7.07;;;640.90;2432.00;;;;;;5093533;28;20039;-84
2023/07/29 07:59:05;;;;;;;8.25;5.00;;;665.80;2432.00;;;;;;5093929;28;20106;-84
2023/07/29 08:01:39;;;;;;;8.15;5.25;;;665.90;2432.00;;;;;;5094024;28;20056;-85
2023/07/29 08:04:05;;;;;;;9.07;5.90;;;665.90;2432.00;;;;;;5093734;28;20111;-84
2023/07/29 08:06:31;;;;;;;7.60;5.88;;;666.00;2432.00;;;;;;5090903;28;20541;-85
2023/07/29 08:08:57;;;;;;;9.63;5.65;;;666.20;2432.00;;;;;;5110616;28;20020;-84
2023/07/29 08:11:23;;;;;;;6.93;5.20;;;666.10;2432.00;;;;;;5108574;28;20076;-85
2023/07/29 08:13:49;;;;;;;6.57;5.40;;;666.30;2432.00;;;;;;5110283;28;20055;-84
2023/07/29 08:16:15;;;;;;;7.47;5.43;;;666.50;2432.00;;;;;;5106967;28;20028;-84
2023/07/29 08:18:41;;;;;;;8.75;5.65;;;691.20;2432.00;;;;;;5116226;28;20010;-84
2023/07/29 08:21:07;;;;;;;8.80;5.70;;;666.50;2432.00;;;;;;5118590;28;20013;-84
2023/07/29 08:23:35;;;;;;;15.20;5.35;;;691.40;2432.00;;;;;;5135435;27;20008;-85
2023/07/29 08:26:04;;;;;;;8.15;5.28;;;691.70;2432.00;;;;;;5111181;28;20119;-84
2023/07/29 08:28:37;;;;;;;7.40;5.10;;;691.70;2432.00;;;;;;5110364;28;20024;-86
2023/07/29 08:31:03;;;;;;;10.50;5.80;;;691.90;2432.00;;;;;;5110976;28;20035;-85
2023/07/29 08:33:29;;;;;;;7.30;5.05;;;691.90;2432.00;;;;;;5110296;28;20099;-86
2023/07/29 08:35:55;;;;;;;8.93;5.07;;;692.00;2432.00;;;;;;5110363;28;20024;-85
2023/07/29 08:38:21;;;;;;;10.88;5.40;;;691.90;2432.00;;;;;;5110358;28;20452;-86
2023/07/29 08:40:59;;;;;;;8.25;5.32;;;691.80;2432.00;;;;;;5109845;28;20034;-84
2023/07/29 08:43:32;;;;;;;7.75;5.20;;;691.70;2432.00;;;;;;5110649;28;20036;-85
2023/07/29 08:45:59;;;;;;;9.05;4.95;;;691.70;2432.00;;;;;;5094567;28;20020;-85
2023/07/29 08:48:41;;;;;;;7.78;5.30;;;691.80;2432.00;;;;;;5110194;28;20460;-84
2023/07/29 08:51:11;;;;;;;9.23;5.10;;;691.60;2432.00;;;;;;5110269;28;20353;-84
2023/07/29 08:53:37;;;;;;;8.05;5.47;;;691.70;2432.00;;;;;;5110087;28;20063;-87
2023/07/29 08:56:05;;;;;;;9.10;5.03;;;691.70;2432.00;;;;;;5093952;28;20059;-84
2023/07/29 08:58:31;;;;;;;10.57;5.20;;;691.70;2432.00;;;;;;5110097;28;20426;-85
2023/07/29 09:00:57;;;;;;;9.35;5.90;;;691.90;2432.00;;;;;;5109881;28;20051;-86
2023/07/29 09:03:23;;;;;;;8.95;5.25;;;692.00;2432.00;;;;;;5109803;28;20032;-85
2023/07/29 09:05:50;;;;;;;8.32;6.45;;;716.90;2432.00;;;;;;5109372;28;20509;-85
2023/07/29 09:08:17;;;;;;;8.60;6.15;;;717.40;2432.00;;;;;;5093518;28;20039;-83
2023/07/29 09:10:43;;;;;;;10.88;5.50;;;717.40;2406.40;;;;;;5093041;28;20071;-83
2023/07/29 09:13:09;;;;;;;8.98;5.72;;;717.40;2406.40;;;;;;5093163;28;20031;-84
2023/07/29 09:15:37;;;;;;;9.25;5.15;;;717.60;2406.40;;;;;;5092518;28;20024;-82
2023/07/29 09:18:10;;;;;;;10.85;6.07;;;717.50;2406.40;;;;;;5094207;28;20024;-83
2023/07/29 09:20:36;;;;;;;8.95;5.20;;;717.20;2406.40;;;;;;5100732;28;20028;-81
2023/07/29 09:23:02;;;;;;;8.13;5.30;;;717.70;2380.80;;;;;;5109457;28;20020;-82
2023/07/29 09:25:30;;;;;;;7.10;5.47;;;742.60;2406.40;;;;;;5109294;28;20020;-83
2023/07/29 09:28:00;;;;;;;6.97;4.82;;;742.90;2355.20;;;;;;5111132;28;20391;-84
2023/07/29 09:30:27;;;;;;;8.85;4.72;;;742.70;2355.20;;;;;;5108715;28;20024;-82
2023/07/29 09:32:57;;;;;;;8.65;4.75;;;742.60;2355.20;;;;;;5098414;28;20029;-83
2023/07/29 09:35:24;;;;;;;7.53;5.05;;;742.70;2355.20;;;;;;5096403;28;20480;-86
2023/07/29 09:37:51;;;;;;;9.18;5.95;;;743.00;2355.20;;;;;;5097003;28;20056;-86
2023/07/29 09:40:18;;;;;;;7.03;4.95;;;742.80;2329.60;;;;;;5097490;28;20032;-86
2023/07/29 09:42:54;;;;;;;5.63;4.32;;;;;;;;;;5096239;28;20040;-84
2023/07/29 09:45:29;;;;;;;7.75;5.80;;;768.60;2227.20;;;;;;5097186;28;20052;-85
2023/07/29 09:47:58;;;;;;;9.65;7.30;;;768.60;2252.80;;;;;;5097599;28;20110;-88
2023/07/29 09:50:25;;;;;;;8.40;5.68;;;;;;;;;;5096862;28;20108;-87
2023/07/29 09:52:52;;;;;;;8.70;5.38;;;;;;;;;;5096538;28;20020;-86
2023/07/29 09:55:19;;;;;;;11.93;6.80;;;;;;;;;;5095939;28;20024;-89
2023/07/29 09:57:45;;;;;;;10.65;8.82;;;;;;;;;;5096984;28;20028;-89
2023/07/29 10:00:12;;;;;;;9.13;5.30;;;;;;;;;;5096037;28;20035;-88
2023/07/29 10:02:42;;;;;;;6.82;4.90;;;;;;;;;;5096008;28;20021;-89
2023/07/29 10:05:09;;;;;;;6.70;4.72;;;768.90;2124.80;;;;;;5095742;28;20032;-88
2023/07/29 10:07:39;;;;;;;10.27;4.57;;;793.60;2176.00;;;;;;5097334;28;20020;-88
2023/07/29 10:10:06;;;;;;;8.55;6.35;;;;;;;;;;5095319;28;20147;-87
2023/07/29 10:12:33;;;;;;;10.55;6.85;;;;;;;;;;5095511;28;20024;-85
2023/07/29 10:15:02;;;;;;;6.13;4.50;;;794.50;2150.40;;;;;;5095561;28;20422;-88
2023/07/29 10:17:29;;;;;;;5.32;3.95;;;794.50;2022.40;;;;;;5095391;28;20032;-86
2023/07/29 10:19:59;;;;;;;6.68;4.47;;;794.40;2048.00;;;;;;5096645;28;20088;-85
2023/07/29 10:22:28;;;;;;;6.60;4.03;;;794.50;2022.40;;;;;;5109573;28;20031;-85
2023/07/29 10:25:02;;;;;;;8.93;4.07;;;819.20;2022.40;;;;;;5099178;28;20472;-89
2023/07/29 10:27:29;;;;;;;5.97;3.78;;;819.50;1996.80;;;;;;5095353;28;20460;-88
2023/07/29 10:29:56;;;;;;;5.65;3.30;;;819.70;1971.20;;;;;;5094180;28;20544;-88
2023/07/29 10:32:26;;;;;;;4.95;3.80;;;819.60;1920.00;;;;;;5095931;28;20050;-89
2023/07/29 10:34:52;;;;;;;7.47;4.45;;;819.60;1894.40;;;;;;5095121;28;20098;-86
2023/07/29 10:37:18;;;;;;;6.45;4.20;;;819.80;1945.60;;;;;;5101084;28;20024;-87
2023/07/29 10:40:06;;;;;;;11.13;7.25;;;820.10;1920.00;;;;;;5115383;28;20122;-88
2023/07/29 10:42:32;;;;;;;8.10;5.50;;;845.30;1945.60;;;;;;5116054;28;20032;-85
2023/07/29 10:44:58;;;;;;;6.40;4.20;;;845.40;1920.00;;;;;;5115414;28;20023;-83
2023/07/29 10:47:29;;;;;;;6.88;4.47;;;845.50;1894.40;;;;;;5115162;28;20028;-87
2023/07/29 10:49:59;;;;;;;6.95;4.82;;;845.40;1894.40;;;;;;5115097;28;20034;-82
2023/07/29 10:52:34;;;;;;;9.20;4.30;;;845.50;1920.00;;;;;;5115110;28;20491;-83
2023/07/29 10:55:01;;;;;;;5.60;4.45;;;870.50;1868.80;;;;;;5115979;28;20034;-83
2023/07/29 10:57:35;;;;;;;42.17;35.63;;;870.50;1868.80;;;;;;5110117;28;20433;-86
2023/07/29 11:00:03;;;;;;;11.55;10.32;;;871.00;1843.20;;;;;;5095823;28;20406;-85
2023/07/29 11:02:49;;;;;;;10.70;7.93;;;871.00;1843.20;;;;;;5097042;28;20081;-90
2023/07/29 11:05:18;;;;;;;20.50;18.08;;;871.00;1817.60;;;;;;5075333;28;20025;-84
2023/07/29 11:07:46;;;;;;;28.33;25.65;;;870.40;1792.00;;;;;;5074106;28;20123;-84
2023/07/29 11:10:13;;;;;;;7.13;5.65;;;870.70;1817.60;;;;;;5085305;28;20130;-83
2023/07/29 11:12:47;;;;;;;6.38;4.60;;;870.90;1792.00;;;;;;5094269;28;20036;-84
2023/07/29 11:15:27;;;;;;;5.07;3.92;;;871.00;1766.40;;;;;;5094538;28;20035;-84
2023/07/29 11:17:53;;;;;;;5.78;4.28;;;870.90;1740.80;;;;;;5094900;28;20149;-84
2023/07/29 11:20:22;;;;;;;7.13;5.63;;;871.20;1740.80;;;;;;5094200;28;20024;-84
2023/07/29 11:22:48;;;;;;;6.43;4.65;;;871.10;1740.80;;;;;;5093726;28;20028;-83
2023/07/29 11:25:16;;;;;;;5.60;3.55;;;871.20;1715.20;;;;;;5093925;28;20411;-83
2023/07/29 11:27:43;;;;;;;6.15;3.00;;;896.00;1689.60;;;;;;5112918;28;20091;-84
2023/07/29 11:30:11;;;;;;;4.70;3.35;;;871.30;1638.40;;;;;;5116624;28;20020;-82
2023/07/29 11:32:38;;;;;;;5.18;3.20;;;896.30;1664.00;;;;;;5100950;28;20089;-83
2023/07/29 11:35:09;;;;;;;4.68;3.13;;;896.60;1664.00;;;;;;5099397;28;20036;-84
2023/07/29 11:37:36;;;;;;;6.18;3.22;;;;;;;;;;5095284;28;20539;-83
2023/07/29 11:40:04;;;;;;;4.63;3.10;;;;;;;;;;5091709;28;20019;-83
2023/07/29 11:42:33;;;;;;;6.85;3.47;;;896.90;1587.20;;;;;;5095319;28;20031;-83
2023/07/29 11:44:59;;;;;;;4.30;3.10;;;896.80;1561.60;;;;;;5091782;28;20053;-83
2023/07/29 11:47:26;;;;;;;5.60;3.40;;;896.90;1561.60;;;;;;5095786;28;20048;-87
2023/07/29 11:49:52;;;;;;;4.50;3.20;;;921.80;1587.20;;;;;;5093571;28;20026;-86
2023/07/29 11:52:19;;;;;;;6.85;2.92;;;922.20;1561.60;;;;;;5093952;28;20020;-85
2023/07/29 11:54:49;;;;;;;4.57;3.13;;;922.10;1561.60;;;;;;5093481;28;20028;-85
2023/07/29 11:57:16;;;;;;;5.18;3.28;;;922.10;1536.00;;;;;;5093687;28;20456;-85
2023/07/29 11:59:42;;;;;;;5.53;2.90;;;922.40;1536.00;;;;;;5110821;28;20483;-83
2023/07/29 12:02:12;;;;;;;5.78;3.30;;;947.20;1536.00;;;;;;5110867;28;20024;-85
2023/07/29 12:04:39;;;;;;;4.40;3.10;;;947.20;1536.00;;;;;;5110445;28;20379;-84
2023/07/29 12:07:05;;;;;;;7.93;5.45;;;947.20;1536.00;;;;;;5107011;28;20086;-86
2023/07/29 12:09:33;;;;;;;7.07;4.72;;;947.40;1536.00;;;;;;5109928;28;20040;-84
2023/07/29 12:12:00;;;;;;;6.80;5.72;;;947.30;1536.00;;;;;;5092935;28;20032;-82
2023/07/29 12:14:28;;;;;;;5.88;3.20;;;947.40;1536.00;;;;;;5093406;28;20059;-86
2023/07/29 12:16:53;;;;;;;5.90;3.35;;;922.50;1510.40;;;;;;5092814;28;20032;-81
2023/07/29 12:19:21;;;;;;;4.35;3.25;;;947.20;1536.00;;;;;;5093186;28;20030;-82
2023/07/29 12:21:49;;;;;;;4.15;2.60;;;947.20;1510.40;;;;;;5093071;28;20468;-82
2023/07/29 12:24:15;;;;;;;9.70;8.02;;;922.10;1510.40;;;;;;5093259;28;20028;-85
2023/07/29 12:26:42;;;;;;;12.90;9.15;;;922.40;1536.00;;;;;;5092055;28;20036;-85
2023/07/29 12:29:21;;;;;;;10.77;7.35;;;947.30;1536.00;;;;;;5094663;28;20107;-80
2023/07/29 12:31:47;;;;;;;7.78;4.88;;;947.40;1536.00;;;;;;5090897;28;20024;-83